Seadelta — 9HA3530 — position and weather

sailwx.info

Track history (hours):
 
Tides and Currents Weather Stations Pressure Air Temp Water Temp Dewpoint Dewpoint Depression Visibility Wind Speed Wind Dir Waves Ship Positions

Seadelta

Last reported at 2017-Oct-17 13:30 UTC. Time now 2017-Oct-18 00:24 UTC.
Position N 36°18' E 020°50'.

Length 250 m; draft 8.2 m.

Type: Tanker. MMSI: 229700000.

Date/timePositionNaut miles runAvg speedWind from/ knotsBaromVisibWave heightAir tempDewpointWater temp
2017-Oct-17 13:30N 36°18' E 020°50'913.1
2017-Oct-17 12:48N 36°17' E 020°39'413.2
2017-Oct-17 12:30N 36°17' E 020°34'713.2
2017-Oct-17 12:00N 36°18' E 020°26'713.3
2017-Oct-17 11:30N 36°18' E 020°17'713.3
2017-Oct-17 11:00N 36°18' E 020°09'713.2
2017-Oct-17 10:30N 36°18' E 020°01'713.2
2017-Oct-17 10:00N 36°18' E 019°53'713.5
2017-Oct-17 09:30N 36°18' E 019°45'713.3
2017-Oct-17 09:00N 36°18' E 019°36'613.3
2017-Oct-17 08:30N 36°18' E 019°28'713.4
2017-Oct-17 08:01N 36°18' E 019°20'713.5
2017-Oct-17 07:30N 36°18' E 019°11'713.5
2017-Oct-17 07:01N 36°18' E 019°03'713.5
2017-Oct-17 06:30N 36°18' E 018°54'713.9
2017-Oct-17 06:00N 36°18' E 018°46'915.2
2017-Oct-17 05:25N 36°18' E 018°35'714.9
2017-Oct-17 04:58N 36°18' E 018°27'713.8
2017-Oct-17 04:29N 36°19' E 018°18'713.8
2017-Oct-17 03:59N 36°19' E 018°10'713.8
2017-Oct-17 03:30N 36°19' E 018°01'1513.7
2017-Oct-17 02:23N 36°19' E 017°43'513.5
2017-Oct-17 01:59N 36°19' E 017°36'613.4
2017-Oct-17 01:31N 36°19' E 017°28'813.2
2017-Oct-17 00:53N 36°19' E 017°18'613.2
2017-Oct-17 00:27N 36°19' E 017°10'613.2
2017-Oct-16 23:58N 36°19' E 017°03'713.3
2017-Oct-16 23:26N 36°19' E 016°54'613.4
2017-Oct-16 23:00N 36°19' E 016°47'6813.3
2017-Oct-16 17:52N 36°21' E 015°22'513.4
2017-Oct-16 17:28N 36°21' E 015°16'814.0
2017-Oct-16 16:54N 36°22' E 015°06'814.0
2017-Oct-16 16:20N 36°24' E 014°56'514.0
2017-Oct-16 15:59N 36°25' E 014°50'714.1
2017-Oct-16 15:30N 36°26' E 014°42'714.2
2017-Oct-16 15:00N 36°27' E 014°33'714.4
2017-Oct-16 14:30N 36°28' E 014°24'1414.2
2017-Oct-16 13:31N 36°32' E 014°07'714.6
2017-Oct-16 13:00N 36°34' E 013°59'714.7
2017-Oct-16 12:30N 36°36' E 013°50'713.9
2017-Oct-16 12:00N 36°37' E 013°41'713.9
2017-Oct-16 11:30N 36°39' E 013°33'713.8
2017-Oct-16 11:00N 36°41' E 013°25'713.7
2017-Oct-16 10:30N 36°44' E 013°17'713.6
2017-Oct-16 10:00N 36°45' E 013°08'713.4
2017-Oct-16 09:30N 36°47' E 013°00'713.3
2017-Oct-16 09:00N 36°48' E 012°52'713.4
2017-Oct-16 08:30N 36°50' E 012°44'713.4
2017-Oct-16 08:00N 36°51' E 012°36'713.4
2017-Oct-16 07:30N 36°53' E 012°28'713.5
2017-Oct-16 07:00N 36°55' E 012°20'815.2
2017-Oct-16 06:31N 36°58' E 012°11'1614.2
2017-Oct-16 05:24N 37°04' E 011°53'1113.3
2017-Oct-16 04:36N 37°09' E 011°41'413.2
2017-Oct-16 04:19N 37°11' E 011°37'2113.2
2017-Oct-16 02:43N 37°21' E 011°14'312.9
2017-Oct-16 02:30N 37°22' E 011°11'713.3
2017-Oct-16 02:00N 37°25' E 011°03'713.3
2017-Oct-16 01:30N 37°26' E 010°55'713.5
2017-Oct-16 01:00N 37°28' E 010°47'1013.5
2017-Oct-16 00:17N 37°30' E 010°34'413.1
2017-Oct-16 00:00N 37°31' E 010°30'3013.3
2017-Oct-15 21:44N 37°35' E 009°52'2113.2
2017-Oct-15 20:10N 37°38' E 009°26'21213.2
2017-Oct-15 04:05N 37°15' E 005°01'413.1
2017-Oct-15 03:47N 37°15' E 004°56'513.0
2017-Oct-15 03:22N 37°14' E 004°49'1313.0
2017-Oct-15 02:25N 37°12' E 004°34'713.2
2017-Oct-15 01:53N 37°11' E 004°25'613.3
2017-Oct-15 01:24N 37°10' E 004°17'513.3
2017-Oct-15 01:00N 37°08' E 004°11'813.1
2017-Oct-15 00:25N 37°07' E 004°01'513.3
2017-Oct-15 00:00N 37°06' E 003°55'813.7
2017-Oct-14 23:24N 37°05' E 003°44'613.7
2017-Oct-14 22:59N 37°05' E 003°37'713.3
2017-Oct-14 22:29N 37°04' E 003°29'1913.2
2017-Oct-14 21:03N 37°01' E 003°05'114.0
2017-Oct-14 21:00N 37°01' E 003°04'613.3
2017-Oct-14 20:30N 36°60' E 002°56'713.2
2017-Oct-14 20:00N 36°58' E 002°48'713.2
2017-Oct-14 19:30N 36°57' E 002°40'613.0
2017-Oct-14 19:00N 36°55' E 002°32'713.1
2017-Oct-14 18:30N 36°54' E 002°24'713.1
2017-Oct-14 18:00N 36°53' E 002°16'713.0
2017-Oct-14 17:30N 36°52' E 002°08'612.9
2017-Oct-14 17:00N 36°51' E 002°00'613.0
2017-Oct-14 16:30N 36°50' E 001°52'713.3
2017-Oct-14 16:00N 36°49' E 001°44'713.3
2017-Oct-14 15:30N 36°47' E 001°36'713.4
2017-Oct-14 15:00N 36°46' E 001°28'713.3
2017-Oct-14 14:30N 36°45' E 001°20'713.2
2017-Oct-14 14:00N 36°44' E 001°11'1012.7
2017-Oct-14 13:12N 36°42' E 000°59'312.5
2017-Oct-14 12:58N 36°42' E 000°55'2513.4
2017-Oct-14 11:05N 36°38' E 000°24'313.4
2017-Oct-14 10:51N 36°37' E 000°20'513.5
2017-Oct-14 10:30N 36°37' E 000°15'713.8
2017-Oct-14 10:00N 36°35' E 000°06'714.2
2017-Oct-14 09:30N 36°34' W 000°02'1114.3
2017-Oct-14 08:46N 36°32' W 000°15'414.2
2017-Oct-14 08:30N 36°31' W 000°20'714.6
2017-Oct-14 08:00N 36°30' W 000°29'815.1
2017-Oct-14 07:30N 36°29' W 000°38'714.8
2017-Oct-14 07:00N 36°28' W 000°47'713.1
2017-Oct-14 06:30N 36°27' W 000°55'613.0
2017-Oct-14 06:00N 36°26' W 001°03'913.4
2017-Oct-14 05:22N 36°24' W 001°13'513.6
2017-Oct-14 05:00N 36°24' W 001°20'1813.7
2017-Oct-14 03:42N 36°20' W 001°41'513.4
2017-Oct-14 03:18N 36°19' W 001°48'16513.6
2017-Oct-13 15:10N 35°60' W 005°10'315.7
2017-Oct-13 15:00N 36°00' W 005°13'816.4
2017-Oct-13 14:30N 35°59' W 005°23'815.6
2017-Oct-13 14:00N 35°56' W 005°33'814.1
2017-Oct-13 13:24N 35°54' W 005°43'3113.6
2017-Oct-13 11:05N 35°53' W 006°22'213.4
2017-Oct-13 10:57N 35°53' W 006°24'2112.9
2017-Oct-13 09:19N 35°55' W 006°50'413.8
2017-Oct-13 09:00N 35°55' W 006°55'714.5
2017-Oct-13 08:30N 35°56' W 007°04'714.0
2017-Oct-13 08:00N 35°56' W 007°13'713.3
2017-Oct-13 07:29N 35°56' W 007°22'613.4
2017-Oct-13 07:00N 35°56' W 007°30'713.3
2017-Oct-13 06:30N 35°57' W 007°38'713.3
2017-Oct-13 06:00N 35°57' W 007°46'713.3
2017-Oct-13 05:30N 35°58' W 007°54'1013.0
2017-Oct-13 04:43N 35°58' W 008°07'313.1
2017-Oct-13 04:29N 35°59' W 008°10'713.3
2017-Oct-13 03:59N 35°59' W 008°19'612.6
2017-Oct-13 03:30N 35°59' W 008°26'1612.8
2017-Oct-13 02:17N 35°60' W 008°45'513.4
2017-Oct-13 01:52N 35°60' W 008°52'612.6
2017-Oct-13 01:25N 35°60' W 008°59'1713.3
2017-Oct-13 00:10N 36°01' W 009°20'314.1
2017-Oct-12 23:59N 36°01' W 009°23'1613.5
2017-Oct-12 22:47N 36°02' W 009°43'413.2
2017-Oct-12 22:28N 36°02' W 009°48'613.0
2017-Oct-12 22:01N 36°02' W 009°56'713.3
2017-Oct-12 21:30N 36°02' W 010°04'1913.2
2017-Oct-12 20:06N 36°03' W 010°27'36113.3
2017-Oct-11 16:55N 36°20' W 017°54'22413.2
2017-Oct-10 23:58N 36°30' W 022°32'713.7
2017-Oct-10 23:29N 36°31' W 022°40'3813.2
2017-Oct-10 20:35N 36°32' W 023°28'113.5
2017-Oct-10 20:30N 36°32' W 023°29'613.2
2017-Oct-10 20:00N 36°33' W 023°37'713.2
2017-Oct-10 19:30N 36°33' W 023°46'613.0
2017-Oct-10 19:00N 36°33' W 023°54'713.2
2017-Oct-10 18:30N 36°33' W 024°02'713.1
2017-Oct-10 18:00N 36°34' W 024°10'713.0
2017-Oct-10 17:30N 36°34' W 024°18'612.9
2017-Oct-10 17:00N 36°34' W 024°26'613.0
2017-Oct-10 16:30N 36°35' W 024°34'713.2
2017-Oct-10 16:01N 36°35' W 024°42'713.1
2017-Oct-10 15:30N 36°35' W 024°51'613.0
2017-Oct-10 15:00N 36°36' W 024°59'1313.3
2017-Oct-10 14:00N 36°37' W 025°15'713.2
2017-Oct-10 13:30N 36°37' W 025°23'713.2
2017-Oct-10 13:00N 36°38' W 025°32'612.8
2017-Oct-10 12:30N 36°38' W 025°40'613.0
2017-Oct-10 12:00N 36°39' W 025°48'713.1
2017-Oct-10 11:30N 36°39' W 025°56'713.3
2017-Oct-10 11:00N 36°40' W 026°04'713.5
2017-Oct-10 10:30N 36°40' W 026°12'713.8
2017-Oct-10 10:00N 36°41' W 026°21'815.1
2017-Oct-10 09:30N 36°42' W 026°31'1314.5
2017-Oct-10 08:34N 36°43' W 026°47'413.1
2017-Oct-10 08:15N 36°43' W 026°53'413.3
2017-Oct-10 07:58N 36°44' W 026°57'10713.2
2017-Oct-09 23:50N 36°53' W 029°11'  
Track history (hours):
 
Tides and Currents Weather Stations Pressure Air Temp Water Temp Dewpoint Dewpoint Depression Visibility Wind Speed Wind Dir Waves Ship Positions

Seadelta

Last reported at 2017-Oct-17 13:30 UTC. Time now 2017-Oct-18 00:24 UTC.
Position N 36°18' E 020°50'.

Length 250 m; draft 8.2 m.

Type: Tanker. MMSI: 229700000.

Date/timePositionNaut miles runAvg speedWind from/ knotsBaromVisibWave heightAir tempDewpointWater temp
2017-Oct-17 13:30N 36°18' E 020°50'913.1
2017-Oct-17 12:48N 36°17' E 020°39'413.2
2017-Oct-17 12:30N 36°17' E 020°34'713.2
2017-Oct-17 12:00N 36°18' E 020°26'713.3
2017-Oct-17 11:30N 36°18' E 020°17'713.3
2017-Oct-17 11:00N 36°18' E 020°09'713.2
2017-Oct-17 10:30N 36°18' E 020°01'713.2
2017-Oct-17 10:00N 36°18' E 019°53'713.5
2017-Oct-17 09:30N 36°18' E 019°45'713.3
2017-Oct-17 09:00N 36°18' E 019°36'613.3
2017-Oct-17 08:30N 36°18' E 019°28'713.4
2017-Oct-17 08:01N 36°18' E 019°20'713.5
2017-Oct-17 07:30N 36°18' E 019°11'713.5
2017-Oct-17 07:01N 36°18' E 019°03'713.5
2017-Oct-17 06:30N 36°18' E 018°54'713.9
2017-Oct-17 06:00N 36°18' E 018°46'915.2
2017-Oct-17 05:25N 36°18' E 018°35'714.9
2017-Oct-17 04:58N 36°18' E 018°27'713.8
2017-Oct-17 04:29N 36°19' E 018°18'713.8
2017-Oct-17 03:59N 36°19' E 018°10'713.8
2017-Oct-17 03:30N 36°19' E 018°01'1513.7
2017-Oct-17 02:23N 36°19' E 017°43'513.5
2017-Oct-17 01:59N 36°19' E 017°36'613.4
2017-Oct-17 01:31N 36°19' E 017°28'813.2
2017-Oct-17 00:53N 36°19' E 017°18'613.2
2017-Oct-17 00:27N 36°19' E 017°10'613.2
2017-Oct-16 23:58N 36°19' E 017°03'713.3
2017-Oct-16 23:26N 36°19' E 016°54'613.4
2017-Oct-16 23:00N 36°19' E 016°47'6813.3
2017-Oct-16 17:52N 36°21' E 015°22'513.4
2017-Oct-16 17:28N 36°21' E 015°16'814.0
2017-Oct-16 16:54N 36°22' E 015°06'814.0
2017-Oct-16 16:20N 36°24' E 014°56'514.0
2017-Oct-16 15:59N 36°25' E 014°50'714.1
2017-Oct-16 15:30N 36°26' E 014°42'714.2
2017-Oct-16 15:00N 36°27' E 014°33'714.4
2017-Oct-16 14:30N 36°28' E 014°24'1414.2
2017-Oct-16 13:31N 36°32' E 014°07'714.6
2017-Oct-16 13:00N 36°34' E 013°59'714.7
2017-Oct-16 12:30N 36°36' E 013°50'713.9
2017-Oct-16 12:00N 36°37' E 013°41'713.9
2017-Oct-16 11:30N 36°39' E 013°33'713.8
2017-Oct-16 11:00N 36°41' E 013°25'713.7
2017-Oct-16 10:30N 36°44' E 013°17'713.6
2017-Oct-16 10:00N 36°45' E 013°08'713.4
2017-Oct-16 09:30N 36°47' E 013°00'713.3
2017-Oct-16 09:00N 36°48' E 012°52'713.4
2017-Oct-16 08:30N 36°50' E 012°44'713.4
2017-Oct-16 08:00N 36°51' E 012°36'713.4
2017-Oct-16 07:30N 36°53' E 012°28'713.5
2017-Oct-16 07:00N 36°55' E 012°20'815.2
2017-Oct-16 06:31N 36°58' E 012°11'1614.2
2017-Oct-16 05:24N 37°04' E 011°53'1113.3
2017-Oct-16 04:36N 37°09' E 011°41'413.2
2017-Oct-16 04:19N 37°11' E 011°37'2113.2
2017-Oct-16 02:43N 37°21' E 011°14'312.9
2017-Oct-16 02:30N 37°22' E 011°11'713.3
2017-Oct-16 02:00N 37°25' E 011°03'713.3
2017-Oct-16 01:30N 37°26' E 010°55'713.5
2017-Oct-16 01:00N 37°28' E 010°47'1013.5
2017-Oct-16 00:17N 37°30' E 010°34'413.1
2017-Oct-16 00:00N 37°31' E 010°30'3013.3
2017-Oct-15 21:44N 37°35' E 009°52'2113.2
2017-Oct-15 20:10N 37°38' E 009°26'21213.2
2017-Oct-15 04:05N 37°15' E 005°01'413.1
2017-Oct-15 03:47N 37°15' E 004°56'513.0
2017-Oct-15 03:22N 37°14' E 004°49'1313.0
2017-Oct-15 02:25N 37°12' E 004°34'713.2
2017-Oct-15 01:53N 37°11' E 004°25'613.3
2017-Oct-15 01:24N 37°10' E 004°17'513.3
2017-Oct-15 01:00N 37°08' E 004°11'813.1
2017-Oct-15 00:25N 37°07' E 004°01'513.3
2017-Oct-15 00:00N 37°06' E 003°55'813.7
2017-Oct-14 23:24N 37°05' E 003°44'613.7
2017-Oct-14 22:59N 37°05' E 003°37'713.3
2017-Oct-14 22:29N 37°04' E 003°29'1913.2
2017-Oct-14 21:03N 37°01' E 003°05'114.0
2017-Oct-14 21:00N 37°01' E 003°04'613.3
2017-Oct-14 20:30N 36°60' E 002°56'713.2
2017-Oct-14 20:00N 36°58' E 002°48'713.2
2017-Oct-14 19:30N 36°57' E 002°40'613.0
2017-Oct-14 19:00N 36°55' E 002°32'713.1
2017-Oct-14 18:30N 36°54' E 002°24'713.1
2017-Oct-14 18:00N 36°53' E 002°16'713.0
2017-Oct-14 17:30N 36°52' E 002°08'612.9
2017-Oct-14 17:00N 36°51' E 002°00'613.0
2017-Oct-14 16:30N 36°50' E 001°52'713.3
2017-Oct-14 16:00N 36°49' E 001°44'713.3
2017-Oct-14 15:30N 36°47' E 001°36'713.4
2017-Oct-14 15:00N 36°46' E 001°28'713.3
2017-Oct-14 14:30N 36°45' E 001°20'713.2
2017-Oct-14 14:00N 36°44' E 001°11'1012.7
2017-Oct-14 13:12N 36°42' E 000°59'312.5
2017-Oct-14 12:58N 36°42' E 000°55'2513.4
2017-Oct-14 11:05N 36°38' E 000°24'313.4
2017-Oct-14 10:51N 36°37' E 000°20'513.5
2017-Oct-14 10:30N 36°37' E 000°15'713.8
2017-Oct-14 10:00N 36°35' E 000°06'714.2
2017-Oct-14 09:30N 36°34' W 000°02'1114.3
2017-Oct-14 08:46N 36°32' W 000°15'414.2
2017-Oct-14 08:30N 36°31' W 000°20'714.6
2017-Oct-14 08:00N 36°30' W 000°29'815.1
2017-Oct-14 07:30N 36°29' W 000°38'714.8
2017-Oct-14 07:00N 36°28' W 000°47'713.1
2017-Oct-14 06:30N 36°27' W 000°55'613.0
2017-Oct-14 06:00N 36°26' W 001°03'913.4
2017-Oct-14 05:22N 36°24' W 001°13'513.6
2017-Oct-14 05:00N 36°24' W 001°20'1813.7
2017-Oct-14 03:42N 36°20' W 001°41'513.4
2017-Oct-14 03:18N 36°19' W 001°48'16513.6
2017-Oct-13 15:10N 35°60' W 005°10'315.7
2017-Oct-13 15:00N 36°00' W 005°13'816.4
2017-Oct-13 14:30N 35°59' W 005°23'815.6
2017-Oct-13 14:00N 35°56' W 005°33'814.1
2017-Oct-13 13:24N 35°54' W 005°43'3113.6
2017-Oct-13 11:05N 35°53' W 006°22'213.4
2017-Oct-13 10:57N 35°53' W 006°24'2112.9
2017-Oct-13 09:19N 35°55' W 006°50'413.8
2017-Oct-13 09:00N 35°55' W 006°55'714.5
2017-Oct-13 08:30N 35°56' W 007°04'714.0
2017-Oct-13 08:00N 35°56' W 007°13'713.3
2017-Oct-13 07:29N 35°56' W 007°22'613.4
2017-Oct-13 07:00N 35°56' W 007°30'713.3
2017-Oct-13 06:30N 35°57' W 007°38'713.3
2017-Oct-13 06:00N 35°57' W 007°46'713.3
2017-Oct-13 05:30N 35°58' W 007°54'1013.0
2017-Oct-13 04:43N 35°58' W 008°07'313.1
2017-Oct-13 04:29N 35°59' W 008°10'713.3
2017-Oct-13 03:59N 35°59' W 008°19'612.6
2017-Oct-13 03:30N 35°59' W 008°26'1612.8
2017-Oct-13 02:17N 35°60' W 008°45'513.4
2017-Oct-13 01:52N 35°60' W 008°52'612.6
2017-Oct-13 01:25N 35°60' W 008°59'1713.3
2017-Oct-13 00:10N 36°01' W 009°20'314.1
2017-Oct-12 23:59N 36°01' W 009°23'1613.5
2017-Oct-12 22:47N 36°02' W 009°43'413.2
2017-Oct-12 22:28N 36°02' W 009°48'613.0
2017-Oct-12 22:01N 36°02' W 009°56'713.3
2017-Oct-12 21:30N 36°02' W 010°04'1913.2
2017-Oct-12 20:06N 36°03' W 010°27'36113.3
2017-Oct-11 16:55N 36°20' W 017°54'22413.2
2017-Oct-10 23:58N 36°30' W 022°32'713.7
2017-Oct-10 23:29N 36°31' W 022°40'3813.2
2017-Oct-10 20:35N 36°32' W 023°28'113.5
2017-Oct-10 20:30N 36°32' W 023°29'613.2
2017-Oct-10 20:00N 36°33' W 023°37'713.2
2017-Oct-10 19:30N 36°33' W 023°46'613.0
2017-Oct-10 19:00N 36°33' W 023°54'713.2
2017-Oct-10 18:30N 36°33' W 024°02'713.1
2017-Oct-10 18:00N 36°34' W 024°10'713.0
2017-Oct-10 17:30N 36°34' W 024°18'612.9
2017-Oct-10 17:00N 36°34' W 024°26'613.0
2017-Oct-10 16:30N 36°35' W 024°34'713.2
2017-Oct-10 16:01N 36°35' W 024°42'713.1
2017-Oct-10 15:30N 36°35' W 024°51'613.0
2017-Oct-10 15:00N 36°36' W 024°59'1313.3
2017-Oct-10 14:00N 36°37' W 025°15'713.2
2017-Oct-10 13:30N 36°37' W 025°23'713.2
2017-Oct-10 13:00N 36°38' W 025°32'612.8
2017-Oct-10 12:30N 36°38' W 025°40'613.0
2017-Oct-10 12:00N 36°39' W 025°48'713.1
2017-Oct-10 11:30N 36°39' W 025°56'713.3
2017-Oct-10 11:00N 36°40' W 026°04'713.5
2017-Oct-10 10:30N 36°40' W 026°12'713.8
2017-Oct-10 10:00N 36°41' W 026°21'815.1
2017-Oct-10 09:30N 36°42' W 026°31'1314.5
2017-Oct-10 08:34N 36°43' W 026°47'413.1
2017-Oct-10 08:15N 36°43' W 026°53'413.3
2017-Oct-10 07:58N 36°44' W 026°57'10713.2
2017-Oct-09 23:50N 36°53' W 029°11'  

Dump ship's entire track history